Time;durP1;ratioP1;P1;durP2;ratioP2;P2;SDS_P1;SDS_P2;PMS_P1;PMS_P2;Temp;Humidity;BMP_temperature;BMP_pressure;BME280_temperature;BME280_humidity;BME280_pressure;Samples;Min_cycle;Max_cycle;Signal;HPM_P1;HPM_P2
2021/10/12 00:01:48;;;;;;;1.53;1.43;;;10.90;97.70;;;;;;5042404;28;20515;-82
2021/10/12 00:04:14;;;;;;;3.03;1.03;;;10.80;98.00;;;;;;5042901;28;20188;-83
2021/10/12 00:06:40;;;;;;;1.80;1.57;;;10.80;98.10;;;;;;5042481;28;20204;-82
2021/10/12 00:09:05;;;;;;;2.60;1.17;;;10.80;98.20;;;;;;5042703;28;20188;-83
2021/10/12 00:11:31;;;;;;;1.13;1.03;;;10.80;98.20;;;;;;5043160;28;20412;-82
2021/10/12 00:13:58;;;;;;;0.80;0.70;;;10.80;98.20;;;;;;5042371;28;20409;-83
2021/10/12 00:16:23;;;;;;;0.77;0.70;;;10.80;98.30;;;;;;5042295;28;20812;-83
2021/10/12 00:18:49;;;;;;;3.50;0.80;;;10.80;98.50;;;;;;5042327;28;20189;-81
2021/10/12 00:21:15;;;;;;;1.77;1.67;;;10.80;98.60;;;;;;5041426;28;20420;-83
2021/10/12 00:23:41;;;;;;;0.93;0.90;;;10.80;98.40;;;;;;5041896;28;20166;-82
2021/10/12 00:26:07;;;;;;;3.17;1.00;;;10.70;98.50;;;;;;5042439;28;20273;-83
2021/10/12 00:28:33;;;;;;;1.23;0.90;;;10.70;98.40;;;;;;5041981;28;20409;-82
2021/10/12 00:30:59;;;;;;;1.17;0.97;;;10.70;98.60;;;;;;5042081;28;20460;-82
2021/10/12 00:33:25;;;;;;;1.65;1.15;;;10.60;98.90;;;;;;5042147;28;20415;-83
2021/10/12 00:35:51;;;;;;;0.57;0.47;;;10.60;99.00;;;;;;5041314;28;20223;-83
2021/10/12 00:38:17;;;;;;;1.27;1.17;;;10.60;99.00;;;;;;5041678;28;20285;-82
2021/10/12 00:40:43;;;;;;;4.95;1.13;;;10.60;98.80;;;;;;5041715;28;20413;-82
2021/10/12 00:43:09;;;;;;;0.97;0.80;;;10.60;98.70;;;;;;5041803;28;20201;-82
2021/10/12 00:45:37;;;;;;;2.20;0.90;;;10.60;98.90;;;;;;5041656;28;20464;-82
2021/10/12 00:48:08;;;;;;;2.28;1.13;;;10.60;99.10;;;;;;5041240;28;20524;-82
2021/10/12 00:50:36;;;;;;;0.63;0.55;;;10.60;99.10;;;;;;5040960;28;20201;-83
2021/10/12 00:53:02;;;;;;;3.50;1.30;;;10.60;98.80;;;;;;5040850;28;20556;-82
2021/10/12 00:55:28;;;;;;;1.48;0.63;;;10.60;98.90;;;;;;5041393;28;20277;-82
2021/10/12 00:57:55;;;;;;;4.13;1.58;;;10.60;98.90;;;;;;5040098;28;20224;-82
2021/10/12 01:00:21;;;;;;;1.38;1.23;;;10.50;98.90;;;;;;5041264;28;20586;-82
2021/10/12 01:02:47;;;;;;;3.08;1.85;;;10.50;98.90;;;;;;5041655;28;20173;-82
2021/10/12 01:05:13;;;;;;;0.70;0.60;;;10.50;98.90;;;;;;5041030;28;20181;-82
2021/10/12 01:07:39;;;;;;;0.73;0.67;;;10.50;98.90;;;;;;5041877;28;20200;-82
2021/10/12 01:10:07;;;;;;;1.95;1.85;;;10.40;99.10;;;;;;5041363;28;20467;-82
2021/10/12 01:12:33;;;;;;;2.08;1.83;;;10.40;99.10;;;;;;5041340;28;20522;-82
2021/10/12 01:14:59;;;;;;;2.50;1.20;;;10.40;99.10;;;;;;5040699;28;20544;-82
2021/10/12 01:17:25;;;;;;;0.90;0.90;;;10.40;99.10;;;;;;5041011;28;20194;-82
2021/10/12 01:19:51;;;;;;;1.20;0.82;;;10.40;99.00;;;;;;5050879;23;20233;-80
2021/10/12 01:22:17;;;;;;;0.97;0.90;;;10.40;99.10;;;;;;5035829;28;20169;-82
2021/10/12 01:24:42;;;;;;;3.40;1.43;;;10.40;99.10;;;;;;5036188;28;20412;-79
2021/10/12 01:27:08;;;;;;;2.60;2.40;;;10.40;99.10;;;;;;5035946;28;20495;-80
2021/10/12 01:29:34;;;;;;;0.57;0.47;;;10.40;99.10;;;;;;5035572;28;20880;-81
2021/10/12 01:32:00;;;;;;;5.20;1.50;;;10.40;99.10;;;;;;5036805;28;20416;-80
2021/10/12 01:34:26;;;;;;;1.13;0.98;;;10.30;99.10;;;;;;5035457;28;20769;-80
2021/10/12 01:36:52;;;;;;;1.92;1.30;;;10.30;99.10;;;;;;5035230;28;20300;-80
2021/10/12 01:39:19;;;;;;;0.87;0.80;;;10.30;99.10;;;;;;5035374;28;20189;-81
2021/10/12 01:41:45;;;;;;;3.80;1.45;;;10.30;99.10;;;;;;5034674;28;20178;-80
2021/10/12 01:44:16;;;;;;;1.73;1.20;;;10.30;99.10;;;;;;5034985;28;20553;-80
2021/10/12 01:46:43;;;;;;;0.90;0.80;;;10.30;99.10;;;;;;5034737;28;20190;-80
2021/10/12 01:49:09;;;;;;;0.68;0.57;;;10.30;99.10;;;;;;5034059;28;20180;-80
2021/10/12 01:51:35;;;;;;;3.43;1.57;;;10.30;99.10;;;;;;5034445;28;20166;-80
2021/10/12 01:54:02;;;;;;;1.20;1.10;;;10.30;99.10;;;;;;5035031;28;20447;-80
2021/10/12 01:56:29;;;;;;;0.80;0.57;;;10.30;99.10;;;;;;5034683;28;20285;-80
2021/10/12 01:58:55;;;;;;;2.05;0.90;;;10.30;99.10;;;;;;5034957;28;20181;-80
2021/10/12 02:01:23;;;;;;;0.70;0.65;;;10.30;99.10;;;;;;5034779;28;20173;-80
2021/10/12 02:03:49;;;;;;;0.85;0.77;;;10.30;99.10;;;;;;5033750;28;20213;-80
2021/10/12 02:06:15;;;;;;;0.70;0.60;;;10.30;99.10;;;;;;5033451;28;20228;-80
2021/10/12 02:08:41;;;;;;;0.65;0.63;;;10.30;99.10;;;;;;5034474;28;20173;-80
2021/10/12 02:11:07;;;;;;;0.97;0.87;;;10.30;99.10;;;;;;5034265;28;20724;-80
2021/10/12 02:13:33;;;;;;;2.55;0.90;;;10.30;99.10;;;;;;5034639;28;20642;-79
2021/10/12 02:15:59;;;;;;;4.20;1.63;;;10.30;99.10;;;;;;5034173;28;20182;-80
2021/10/12 02:18:24;;;;;;;3.80;3.60;;;10.30;99.10;;;;;;5034550;28;20490;-80
2021/10/12 02:20:50;;;;;;;0.70;0.60;;;10.30;99.10;;;;;;5034706;28;20417;-80
2021/10/12 02:23:17;;;;;;;1.33;0.70;;;10.40;99.10;;;;;;5034097;28;20260;-80
2021/10/12 02:25:43;;;;;;;1.20;1.05;;;10.40;99.10;;;;;;5034199;28;20416;-80
2021/10/12 02:28:09;;;;;;;0.80;0.70;;;10.40;99.10;;;;;;5034750;28;20695;-80
2021/10/12 02:30:35;;;;;;;0.80;0.70;;;10.40;99.10;;;;;;5036169;28;20494;-80
2021/10/12 02:33:01;;;;;;;2.05;1.30;;;10.40;99.10;;;;;;5034947;28;20514;-80
2021/10/12 02:35:27;;;;;;;0.87;0.77;;;10.40;99.10;;;;;;5034574;28;20247;-81
2021/10/12 02:37:53;;;;;;;0.70;0.60;;;10.40;99.10;;;;;;5034141;28;20436;-80
2021/10/12 02:40:19;;;;;;;0.98;0.88;;;10.40;99.10;;;;;;5033918;28;20174;-80
2021/10/12 02:42:45;;;;;;;1.27;1.20;;;10.40;99.10;;;;;;5034542;28;20185;-80
2021/10/12 02:45:11;;;;;;;1.07;0.97;;;10.40;99.10;;;;;;5034443;28;20173;-80
2021/10/12 02:47:36;;;;;;;1.43;0.60;;;10.40;99.10;;;;;;5033995;28;20516;-79
2021/10/12 02:50:04;;;;;;;2.00;1.07;;;10.40;99.10;;;;;;5034536;28;20482;-79
2021/10/12 02:52:29;;;;;;;7.05;1.10;;;10.40;99.10;;;;;;5034612;28;20416;-79
2021/10/12 02:54:56;;;;;;;0.80;0.70;;;10.40;99.10;;;;;;5034179;28;20224;-80
2021/10/12 02:57:22;;;;;;;4.55;0.93;;;10.40;99.10;;;;;;5033515;28;20198;-80
2021/10/12 02:59:48;;;;;;;0.98;0.82;;;10.40;99.10;;;;;;5032681;28;20196;-80
2021/10/12 03:02:13;;;;;;;0.97;0.50;;;10.40;99.10;;;;;;5033775;28;20182;-80
2021/10/12 03:04:39;;;;;;;1.80;0.70;;;10.30;99.10;;;;;;5036800;28;20432;-80
2021/10/12 03:07:05;;;;;;;0.93;0.57;;;10.40;99.10;;;;;;5036899;28;20439;-80
2021/10/12 03:09:31;;;;;;;2.40;1.00;;;10.30;99.10;;;;;;5036692;28;20212;-80
2021/10/12 03:11:56;;;;;;;1.00;0.70;;;10.30;99.10;;;;;;5036567;28;20933;-80
2021/10/12 03:14:22;;;;;;;0.60;0.50;;;10.40;99.10;;;;;;5035894;28;20181;-80
2021/10/12 03:16:48;;;;;;;0.87;0.87;;;10.40;99.10;;;;;;5036198;28;20433;-80
2021/10/12 03:19:16;;;;;;;1.60;0.80;;;10.40;99.10;;;;;;5036929;28;21072;-80
2021/10/12 03:21:50;;;;;;;2.15;0.98;;;10.40;99.10;;;;;;5036508;28;20940;-80
2021/10/12 03:24:16;;;;;;;0.95;0.90;;;10.30;99.10;;;;;;5033945;28;20273;-79
2021/10/12 03:26:42;;;;;;;0.70;0.60;;;10.40;99.10;;;;;;5033517;28;20194;-80
2021/10/12 03:29:08;;;;;;;4.70;1.00;;;10.40;99.10;;;;;;5033376;28;20188;-80
2021/10/12 03:31:34;;;;;;;1.80;1.70;;;10.40;99.10;;;;;;5033111;28;20495;-79
2021/10/12 03:33:59;;;;;;;4.53;2.67;;;10.30;99.10;;;;;;5032973;28;20419;-80
2021/10/12 03:36:25;;;;;;;4.80;1.47;;;10.30;99.10;;;;;;5033214;28;20209;-79
2021/10/12 03:38:51;;;;;;;3.37;1.17;;;10.30;99.10;;;;;;5032917;28;20606;-80
2021/10/12 03:41:17;;;;;;;1.80;1.13;;;10.20;99.10;;;;;;5033306;28;20416;-80
2021/10/12 03:43:42;;;;;;;0.50;0.40;;;10.20;99.10;;;;;;5033192;28;20181;-80
2021/10/12 03:46:08;;;;;;;1.53;1.33;;;10.20;99.10;;;;;;5033361;28;20416;-81
2021/10/12 03:48:34;;;;;;;1.23;1.17;;;10.20;99.10;;;;;;5033206;28;20412;-80
2021/10/12 03:51:00;;;;;;;1.33;1.00;;;10.20;99.10;;;;;;5032954;28;20514;-80
2021/10/12 03:53:26;;;;;;;0.60;0.60;;;10.20;99.10;;;;;;5032752;28;20261;-80
2021/10/12 03:55:51;;;;;;;1.90;1.00;;;10.20;99.10;;;;;;5033436;28;20440;-80
2021/10/12 03:58:17;;;;;;;4.10;1.60;;;10.20;99.10;;;;;;5032820;28;20200;-80
2021/10/12 04:00:43;;;;;;;3.37;3.00;;;10.20;99.10;;;;;;5032431;28;20420;-81
2021/10/12 04:03:09;;;;;;;2.93;1.03;;;10.30;99.10;;;;;;5033307;28;20948;-81
2021/10/12 04:05:35;;;;;;;0.93;0.80;;;10.30;99.10;;;;;;5033007;28;20416;-81
2021/10/12 04:08:00;;;;;;;3.37;2.70;;;10.40;99.10;;;;;;5033249;28;20850;-81
2021/10/12 04:10:26;;;;;;;1.43;1.37;;;10.40;99.10;;;;;;5034356;28;20634;-81
2021/10/12 04:12:52;;;;;;;0.60;0.50;;;10.40;99.10;;;;;;5037020;28;20177;-81
2021/10/12 04:15:18;;;;;;;4.43;3.03;;;10.50;99.10;;;;;;5036565;28;20174;-81
2021/10/12 04:17:43;;;;;;;0.60;0.50;;;10.40;99.10;;;;;;5036372;28;20567;-81
2021/10/12 04:20:10;;;;;;;8.63;1.60;;;10.40;99.10;;;;;;5036629;28;20435;-81
2021/10/12 04:22:36;;;;;;;0.90;0.80;;;10.50;99.10;;;;;;5036363;28;20173;-81
2021/10/12 04:25:01;;;;;;;0.97;0.83;;;10.50;99.10;;;;;;5035861;28;20327;-81
2021/10/12 04:27:28;;;;;;;0.87;0.70;;;10.60;99.10;;;;;;5035667;28;20471;-81
2021/10/12 04:29:54;;;;;;;2.35;2.17;;;10.60;99.10;;;;;;5036022;28;21119;-80
2021/10/12 04:32:20;;;;;;;0.90;0.80;;;10.60;99.10;;;;;;5036010;28;20311;-81
2021/10/12 04:34:46;;;;;;;1.40;1.30;;;10.70;99.10;;;;;;5035768;28;20203;-80
2021/10/12 04:37:12;;;;;;;4.00;0.87;;;10.60;99.10;;;;;;5036152;28;20444;-81
2021/10/12 04:39:37;;;;;;;1.33;1.23;;;10.60;99.10;;;;;;5035907;28;20416;-80
2021/10/12 04:42:05;;;;;;;1.27;1.17;;;10.60;99.10;;;;;;5035624;28;20420;-81
2021/10/12 04:44:32;;;;;;;1.27;0.95;;;10.70;99.10;;;;;;5036785;28;20439;-81
2021/10/12 04:46:58;;;;;;;1.05;0.95;;;10.80;99.10;;;;;;5036907;28;20212;-81
2021/10/12 04:49:23;;;;;;;3.50;1.50;;;10.80;99.10;;;;;;5037966;28;20206;-81
2021/10/12 04:51:49;;;;;;;1.73;1.17;;;10.80;99.10;;;;;;5038767;28;20504;-81
2021/10/12 04:54:15;;;;;;;1.00;0.73;;;10.80;99.10;;;;;;5038866;28;20405;-81
2021/10/12 04:56:41;;;;;;;2.67;1.57;;;10.90;99.10;;;;;;5039140;28;20196;-81
2021/10/12 04:59:07;;;;;;;1.30;0.90;;;10.90;99.10;;;;;;5040033;28;20512;-81
2021/10/12 05:01:33;;;;;;;3.37;2.10;;;11.00;99.10;;;;;;5039407;28;20412;-81
2021/10/12 05:03:58;;;;;;;2.00;1.43;;;10.90;99.10;;;;;;5039964;28;20978;-81
2021/10/12 05:06:24;;;;;;;0.70;0.63;;;10.90;99.10;;;;;;5040109;28;20429;-81
2021/10/12 05:08:50;;;;;;;0.70;0.60;;;10.90;99.10;;;;;;5039282;28;20495;-81
2021/10/12 05:11:16;;;;;;;1.40;1.30;;;10.90;99.10;;;;;;5040035;28;20452;-79
2021/10/12 05:13:42;;;;;;;1.63;0.90;;;10.90;99.10;;;;;;5039186;28;20420;-79
2021/10/12 05:16:12;;;;;;;5.57;0.90;;;10.90;99.10;;;;;;5039466;28;20693;-79
2021/10/12 05:18:39;;;;;;;0.98;0.90;;;10.90;99.10;;;;;;5039852;28;20421;-79
2021/10/12 05:21:05;;;;;;;3.00;2.15;;;10.90;99.10;;;;;;5039666;28;20200;-79
2021/10/12 05:23:31;;;;;;;0.80;0.70;;;10.90;99.10;;;;;;5038055;28;20214;-79
2021/10/12 05:25:58;;;;;;;1.23;1.13;;;11.00;99.10;;;;;;5038681;28;20920;-79
2021/10/12 05:28:25;;;;;;;1.27;1.00;;;11.00;99.10;;;;;;5037985;28;20214;-79
2021/10/12 05:30:51;;;;;;;1.17;1.10;;;11.00;99.10;;;;;;5038560;28;20212;-79
2021/10/12 05:33:19;;;;;;;0.70;0.60;;;10.90;99.10;;;;;;5036913;28;20235;-79
2021/10/12 05:35:47;;;;;;;1.85;1.15;;;11.00;99.10;;;;;;5038171;28;20178;-79
2021/10/12 05:38:18;;;;;;;1.77;0.70;;;11.00;99.10;;;;;;5037484;28;20193;-79
2021/10/12 05:40:44;;;;;;;0.80;0.80;;;11.00;99.10;;;;;;5035827;28;20181;-80
2021/10/12 05:43:10;;;;;;;0.80;0.70;;;11.00;99.10;;;;;;5037740;28;20185;-79
2021/10/12 05:45:36;;;;;;;3.42;0.80;;;11.00;99.10;;;;;;5036487;28;20491;-79
2021/10/12 05:48:06;;;;;;;0.87;0.80;;;11.00;99.10;;;;;;5037104;28;20235;-79
2021/10/12 05:50:33;;;;;;;0.40;0.40;;;11.00;99.10;;;;;;5037392;28;20510;-79
2021/10/12 05:53:10;;;;;;;1.30;1.20;;;11.00;99.10;;;;;;5037677;28;20173;-79
2021/10/12 06:00:53;;;;;;;8.32;1.25;;;11.00;99.10;;;;;;5040940;28;20204;-79
2021/10/12 06:03:19;;;;;;;0.80;0.70;;;11.00;99.10;;;;;;5038736;28;20186;-79
2021/10/12 06:05:44;;;;;;;1.87;0.90;;;11.00;99.10;;;;;;5038654;28;20170;-79
2021/10/12 06:08:10;;;;;;;2.53;1.87;;;11.00;99.10;;;;;;5038814;28;20532;-79
2021/10/12 06:10:37;;;;;;;6.00;2.10;;;11.00;99.10;;;;;;5038165;28;21110;-79
2021/10/12 06:13:09;;;;;;;1.05;0.95;;;11.00;99.10;;;;;;5038246;28;20174;-79
2021/10/12 06:15:35;;;;;;;0.60;0.50;;;11.00;99.10;;;;;;5037852;28;20208;-79
2021/10/12 06:18:01;;;;;;;2.55;1.30;;;11.00;99.10;;;;;;5039304;28;20205;-80
2021/10/12 06:20:27;;;;;;;1.47;0.70;;;11.00;99.10;;;;;;5038675;28;20190;-80
2021/10/12 06:22:52;;;;;;;0.95;0.85;;;11.00;99.10;;;;;;5037639;28;20745;-80
2021/10/12 06:25:18;;;;;;;0.50;0.40;;;11.00;99.10;;;;;;5037231;28;20202;-80
2021/10/12 06:27:44;;;;;;;0.90;0.80;;;11.00;99.10;;;;;;5037746;28;20569;-80
2021/10/12 06:30:11;;;;;;;4.32;0.88;;;11.00;99.10;;;;;;5037542;28;20202;-80
2021/10/12 06:32:37;;;;;;;0.75;0.65;;;11.10;99.10;;;;;;5037076;28;20177;-80
2021/10/12 06:35:07;;;;;;;2.33;1.40;;;11.10;99.10;;;;;;5037277;28;20548;-80
2021/10/12 06:37:33;;;;;;;5.95;2.33;;;11.10;99.10;;;;;;5037054;28;20190;-80
2021/10/12 06:39:59;;;;;;;1.95;0.60;;;11.10;99.10;;;;;;5037161;28;20213;-80
2021/10/12 06:42:25;;;;;;;1.45;1.35;;;11.20;99.10;;;;;;5037073;28;20174;-80
2021/10/12 06:44:52;;;;;;;1.55;1.45;;;11.20;99.10;;;;;;5036959;28;20173;-80
2021/10/12 06:47:18;;;;;;;0.80;0.70;;;11.30;99.10;;;;;;5036686;28;20682;-80
2021/10/12 06:49:43;;;;;;;0.80;0.70;;;11.30;99.10;;;;;;5035586;28;20205;-79
2021/10/12 06:52:09;;;;;;;2.10;1.17;;;11.30;99.10;;;;;;5035640;28;20257;-80
2021/10/12 06:54:35;;;;;;;0.70;0.60;;;11.30;99.10;;;;;;5035952;28;20202;-80
2021/10/12 06:57:02;;;;;;;2.05;1.00;;;11.30;99.10;;;;;;5035908;28;20504;-80
2021/10/12 06:59:28;;;;;;;1.10;1.02;;;11.30;99.10;;;;;;5036332;28;20174;-79
2021/10/12 07:01:54;;;;;;;0.88;0.63;;;11.30;99.10;;;;;;5036501;28;20178;-79
2021/10/12 07:04:21;;;;;;;0.60;0.50;;;11.40;99.10;;;;;;5035304;28;20180;-80
2021/10/12 07:06:47;;;;;;;1.20;1.10;;;11.30;99.10;;;;;;5035870;28;20193;-80
2021/10/12 07:09:16;;;;;;;0.70;0.70;;;11.40;99.10;;;;;;5035286;28;20181;-79
2021/10/12 07:11:43;;;;;;;1.40;0.60;;;11.40;99.10;;;;;;5034967;28;20166;-80
2021/10/12 07:14:09;;;;;;;0.70;0.70;;;11.40;99.10;;;;;;5037062;28;20169;-80
2021/10/12 07:16:35;;;;;;;1.00;0.90;;;11.40;99.10;;;;;;5036574;28;20185;-79
2021/10/12 07:19:02;;;;;;;4.00;1.20;;;11.40;99.10;;;;;;5049170;23;20256;-82
2021/10/12 07:21:28;;;;;;;1.30;0.80;;;11.50;99.10;;;;;;5036047;28;20425;-80
2021/10/12 07:23:53;;;;;;;1.63;1.07;;;11.50;99.10;;;;;;5035720;28;20269;-80
2021/10/12 07:26:19;;;;;;;3.10;2.90;;;11.50;99.10;;;;;;5035642;28;20428;-79
2021/10/12 07:28:45;;;;;;;1.23;1.10;;;11.60;99.10;;;;;;5036412;28;20641;-80
2021/10/12 07:31:11;;;;;;;0.70;0.70;;;11.60;99.10;;;;;;5036594;28;20208;-80
2021/10/12 07:33:37;;;;;;;0.60;0.50;;;11.60;99.10;;;;;;5036033;28;20409;-80
2021/10/12 07:36:03;;;;;;;2.85;1.05;;;11.70;99.10;;;;;;5036379;28;20220;-80
2021/10/12 07:38:30;;;;;;;1.52;0.60;;;11.70;99.10;;;;;;5032552;28;20253;-79
2021/10/12 07:40:56;;;;;;;0.50;0.50;;;11.70;99.10;;;;;;5032440;28;20170;-79
2021/10/12 07:43:23;;;;;;;1.00;0.90;;;11.70;99.10;;;;;;5032288;28;20178;-79
2021/10/12 07:45:49;;;;;;;0.88;0.77;;;11.70;99.10;;;;;;5032446;28;20174;-82
2021/10/12 07:48:16;;;;;;;0.70;0.60;;;11.80;99.10;;;;;;5046912;28;20273;-82
2021/10/12 07:50:43;;;;;;;1.77;0.95;;;11.80;99.10;;;;;;5045949;28;20289;-81
2021/10/12 07:53:10;;;;;;;3.80;2.00;;;11.90;99.10;;;;;;5046178;28;20178;-81
2021/10/12 07:58:02;;;;;;;0.65;0.55;;;12.00;99.10;;;;;;5047500;28;20194;-81
2021/10/12 08:00:31;;;;;;;0.68;0.60;;;12.00;99.10;;;;;;5046942;28;20170;-81
2021/10/12 08:02:58;;;;;;;1.95;1.83;;;12.00;99.10;;;;;;5047058;28;20704;-81
2021/10/12 08:05:25;;;;;;;2.30;0.60;;;12.00;99.10;;;;;;5046436;28;20181;-81
2021/10/12 08:07:51;;;;;;;0.88;0.63;;;12.00;99.10;;;;;;5047846;28;20207;-81
2021/10/12 08:10:17;;;;;;;0.77;0.70;;;12.00;99.10;;;;;;5046616;28;20601;-81
2021/10/12 08:12:45;;;;;;;1.58;0.55;;;11.90;99.10;;;;;;5047126;28;20212;-81
2021/10/12 08:15:11;;;;;;;1.75;0.70;;;11.90;99.10;;;;;;5045582;28;20172;-81
2021/10/12 08:17:38;;;;;;;0.60;0.50;;;11.90;99.10;;;;;;5045958;28;20261;-81
2021/10/12 08:20:05;;;;;;;3.08;0.98;;;12.00;99.10;;;;;;5045172;28;20548;-81
2021/10/12 08:22:30;;;;;;;1.17;1.08;;;11.90;99.10;;;;;;5044940;28;20185;-81
2021/10/12 08:24:56;;;;;;;0.80;0.70;;;12.00;99.10;;;;;;5045465;28;20242;-81
2021/10/12 08:27:22;;;;;;;0.40;0.40;;;12.00;99.10;;;;;;5046392;28;20438;-81
2021/10/12 08:29:51;;;;;;;0.50;0.40;;;12.00;99.10;;;;;;5046655;28;20542;-80
2021/10/12 08:32:20;;;;;;;0.70;0.60;;;12.00;99.10;;;;;;5042777;28;20177;-81
2021/10/12 08:34:46;;;;;;;0.50;0.40;;;12.00;99.10;;;;;;5044656;28;20205;-80
2021/10/12 08:37:15;;;;;;;0.50;0.40;;;12.10;99.10;;;;;;5044457;28;20190;-81
2021/10/12 08:39:43;;;;;;;0.50;0.47;;;12.00;99.10;;;;;;5042665;28;20220;-80
2021/10/12 08:42:32;;;;;;;0.70;0.60;;;12.10;99.10;;;;;;5039771;28;20178;-81
2021/10/12 08:45:01;;;;;;;0.50;0.45;;;12.10;99.10;;;;;;5039644;28;20201;-80
2021/10/12 08:47:29;;;;;;;0.65;0.55;;;12.20;99.10;;;;;;5039736;28;20209;-81
2021/10/12 08:49:56;;;;;;;0.93;0.75;;;12.30;99.10;;;;;;5039622;28;20197;-82
2021/10/12 08:52:25;;;;;;;1.55;0.70;;;12.30;99.10;;;;;;5040124;28;20200;-80
2021/10/12 08:54:53;;;;;;;0.60;0.50;;;12.40;99.10;;;;;;5041376;28;20661;-81
2021/10/12 08:57:35;;;;;;;1.05;0.95;;;12.40;99.10;;;;;;5042144;28;20190;-79
2021/10/12 09:00:13;;;;;;;0.50;0.40;;;12.40;99.10;;;;;;5041435;28;20162;-80
2021/10/12 09:05:57;;;;;;;0.73;0.63;;;12.40;99.10;;;;;;5043487;28;20173;-81
2021/10/12 09:08:39;;;;;;;2.22;1.15;;;12.40;99.10;;;;;;5040961;28;20170;-82
2021/10/12 09:11:21;;;;;;;0.60;0.50;;;12.50;99.10;;;;;;5042679;28;20217;-79
2021/10/12 09:13:51;;;;;;;1.60;0.98;;;12.60;99.10;;;;;;5042455;28;20174;-80
2021/10/12 09:16:18;;;;;;;0.65;0.50;;;12.60;99.10;;;;;;5041708;28;20194;-80
2021/10/12 09:18:51;;;;;;;0.50;0.40;;;12.60;99.10;;;;;;5041989;28;20181;-80
2021/10/12 09:21:20;;;;;;;0.60;0.50;;;12.60;99.10;;;;;;5042538;28;20181;-80
2021/10/12 09:23:47;;;;;;;0.60;0.50;;;12.70;98.90;;;;;;5042664;28;20510;-80
2021/10/12 09:26:25;;;;;;;1.83;1.73;;;12.80;98.50;;;;;;5041206;28;20220;-80
2021/10/12 09:28:57;;;;;;;0.40;0.40;;;12.90;98.80;;;;;;5041719;28;20177;-80
2021/10/12 09:31:31;;;;;;;1.48;1.05;;;12.90;97.90;;;;;;5042395;28;20248;-80
2021/10/12 09:34:01;;;;;;;0.50;0.40;;;13.00;97.90;;;;;;5041147;28;20180;-80
2021/10/12 09:36:28;;;;;;;0.70;0.63;;;13.10;99.00;;;;;;5041653;28;20214;-80
2021/10/12 09:38:55;;;;;;;0.60;0.50;;;13.20;98.00;;;;;;5041767;28;20637;-80
2021/10/12 09:41:25;;;;;;;0.75;0.65;;;13.30;98.80;;;;;;5040694;28;20268;-79
2021/10/12 09:43:51;;;;;;;0.90;0.70;;;13.40;98.00;;;;;;5041668;28;20642;-80
2021/10/12 09:46:23;;;;;;;0.40;0.40;;;13.30;96.20;;;;;;5041786;28;20202;-80
2021/10/12 09:48:48;;;;;;;0.40;0.40;;;13.40;96.20;;;;;;5041794;28;20174;-79
2021/10/12 09:51:17;;;;;;;0.60;0.50;;;13.40;96.40;;;;;;5042876;28;20277;-80
2021/10/12 09:53:45;;;;;;;0.60;0.50;;;13.50;95.30;;;;;;5042675;28;20245;-79
2021/10/12 09:56:12;;;;;;;0.60;0.50;;;13.60;95.70;;;;;;5041597;28;20170;-79
2021/10/12 09:58:39;;;;;;;0.50;0.40;;;13.60;95.20;;;;;;5042330;28;20177;-79
2021/10/12 10:01:09;;;;;;;1.65;1.00;;;13.70;95.50;;;;;;5040299;28;20548;-79
2021/10/12 10:03:36;;;;;;;0.73;0.68;;;13.70;94.80;;;;;;5040192;28;20174;-79
2021/10/12 10:06:07;;;;;;;0.98;0.98;;;13.60;92.80;;;;;;5039794;28;20402;-79
2021/10/12 10:08:37;;;;;;;0.75;0.50;;;13.30;92.70;;;;;;5039496;28;20201;-79
2021/10/12 10:11:05;;;;;;;1.95;1.85;;;13.20;93.00;;;;;;5039974;28;20197;-79
2021/10/12 10:13:33;;;;;;;0.50;0.50;;;13.00;94.40;;;;;;5039019;28;20180;-79
2021/10/12 10:16:00;;;;;;;0.50;0.50;;;13.00;96.00;;;;;;5038975;28;20173;-78
2021/10/12 10:18:26;;;;;;;0.85;0.75;;;13.00;95.10;;;;;;5040103;28;20173;-79
2021/10/12 10:20:55;;;;;;;0.50;0.40;;;12.90;95.50;;;;;;5039885;28;20249;-79
2021/10/12 10:24:01;;;;;;;0.40;0.40;;;12.80;96.50;;;;;;5040371;28;20188;-79
2021/10/12 10:26:31;;;;;;;0.40;0.40;;;12.60;95.90;;;;;;5040573;28;20238;-78
2021/10/12 10:29:38;;;;;;;0.82;0.77;;;12.50;97.30;;;;;;5042072;28;20170;-79
2021/10/12 10:32:22;;;;;;;0.40;0.40;;;12.50;97.40;;;;;;5040823;28;20656;-79
2021/10/12 10:35:04;;;;;;;0.43;0.40;;;12.50;97.10;;;;;;5040966;28;20244;-79
2021/10/12 10:37:33;;;;;;;0.68;0.57;;;12.60;98.00;;;;;;5040605;28;20186;-79
2021/10/12 10:40:03;;;;;;;0.40;0.40;;;12.70;97.30;;;;;;5040475;28;20194;-80
2021/10/12 10:42:41;;;;;;;0.60;0.60;;;12.80;97.00;;;;;;5040814;28;20174;-79
2021/10/12 10:45:09;;;;;;;0.73;0.63;;;13.00;97.30;;;;;;5041027;28;20206;-79
2021/10/12 10:47:41;;;;;;;1.15;1.05;;;13.20;99.10;;;;;;5040926;28;20190;-79
2021/10/12 10:50:29;;;;;;;0.40;0.40;;;13.40;95.30;;;;;;5041237;28;20208;-79
2021/10/12 10:52:57;;;;;;;0.88;0.50;;;13.60;93.60;;;;;;5041206;28;20249;-79
2021/10/12 10:55:30;;;;;;;1.40;1.00;;;13.70;93.40;;;;;;5040683;28;20177;-79
2021/10/12 10:58:12;;;;;;;1.15;0.77;;;13.80;93.00;;;;;;5040492;28;20673;-79
2021/10/12 11:00:39;;;;;;;0.40;0.40;;;14.00;92.60;;;;;;5041305;28;20177;-79
2021/10/12 11:03:06;;;;;;;0.80;0.70;;;14.00;92.30;;;;;;5040651;28;20181;-79
2021/10/12 11:05:45;;;;;;;0.50;0.40;;;14.00;93.70;;;;;;5041325;28;20560;-80
2021/10/12 11:08:30;;;;;;;0.60;0.60;;;14.10;93.00;;;;;;5041040;28;20536;-79
2021/10/12 11:11:07;;;;;;;0.85;0.75;;;14.10;93.00;;;;;;5040963;28;20563;-80
2021/10/12 11:13:39;;;;;;;0.82;0.80;;;14.30;92.60;;;;;;5040407;28;20228;-80
2021/10/12 11:16:15;;;;;;;0.70;0.60;;;14.30;93.40;;;;;;5039854;28;20177;-79
2021/10/12 11:18:44;;;;;;;1.70;1.60;;;14.20;90.50;;;;;;5039231;28;20173;-79
2021/10/12 11:21:13;;;;;;;0.90;0.88;;;14.00;89.90;;;;;;5039350;28;20185;-79
2021/10/12 11:23:48;;;;;;;1.08;0.70;;;13.90;92.90;;;;;;5040982;28;20185;-79
2021/10/12 11:26:23;;;;;;;1.08;0.70;;;13.90;91.80;;;;;;5040779;28;20202;-79
2021/10/12 11:28:54;;;;;;;0.73;0.65;;;13.90;91.50;;;;;;5041318;28;20191;-81
2021/10/12 11:31:25;;;;;;;0.60;0.50;;;13.80;91.80;;;;;;5039323;28;20301;-82
2021/10/12 11:33:56;;;;;;;1.85;1.15;;;13.70;92.70;;;;;;5040127;28;20177;-81
2021/10/12 11:36:27;;;;;;;2.22;1.88;;;13.60;93.80;;;;;;5040688;28;20191;-82
2021/10/12 11:38:56;;;;;;;0.60;0.60;;;13.60;91.80;;;;;;5042082;28;20169;-81
2021/10/12 11:41:36;;;;;;;0.93;0.73;;;13.60;91.80;;;;;;5042075;28;20296;-81
2021/10/12 11:44:16;;;;;;;0.88;0.80;;;13.60;91.90;;;;;;5044127;28;20184;-81
2021/10/12 11:46:47;;;;;;;0.50;0.50;;;13.60;91.30;;;;;;5039460;28;20193;-82
2021/10/12 11:49:16;;;;;;;1.50;0.90;;;13.80;92.70;;;;;;5039747;28;20185;-82
2021/10/12 11:51:43;;;;;;;1.40;0.50;;;13.90;90.40;;;;;;5040361;28;20185;-81
2021/10/12 11:54:10;;;;;;;0.60;0.55;;;14.00;89.90;;;;;;5038633;28;20541;-81
2021/10/12 11:56:37;;;;;;;0.60;0.60;;;14.10;89.80;;;;;;5037893;28;20193;-81
2021/10/12 11:59:05;;;;;;;0.40;0.40;;;14.20;90.80;;;;;;5039105;28;20312;-81
2021/10/12 12:01:36;;;;;;;2.10;0.90;;;14.20;86.20;;;;;;5039042;28;20237;-81
2021/10/12 12:04:04;;;;;;;3.20;1.05;;;14.20;88.70;;;;;;5038798;28;20224;-81
2021/10/12 12:06:36;;;;;;;0.40;0.40;;;14.30;87.40;;;;;;5038787;28;20194;-81
2021/10/12 12:09:25;;;;;;;1.58;0.70;;;14.50;88.00;;;;;;5038628;28;20177;-81
2021/10/12 12:11:54;;;;;;;2.28;0.70;;;14.70;86.30;;;;;;5037716;28;20641;-81
2021/10/12 12:14:24;;;;;;;0.65;0.55;;;14.80;85.50;;;;;;5038893;28;20174;-81
2021/10/12 12:17:29;;;;;;;0.50;0.40;;;14.70;83.80;;;;;;5038066;28;20193;-81
2021/10/12 12:19:57;;;;;;;0.40;0.40;;;14.80;85.20;;;;;;4961481;28;20199;-81
2021/10/12 12:22:26;;;;;;;0.98;0.88;;;15.00;87.40;;;;;;4962224;28;20196;-81
2021/10/12 12:25:14;;;;;;;0.55;0.47;;;15.00;84.40;;;;;;5001014;28;20178;-81
2021/10/12 12:27:57;;;;;;;0.80;0.70;;;14.90;85.80;;;;;;5038481;28;20197;-81
2021/10/12 12:30:41;;;;;;;0.50;0.45;;;15.10;83.90;;;;;;5039300;28;20197;-81
2021/10/12 12:33:07;;;;;;;0.40;0.40;;;15.50;82.60;;;;;;5040353;28;20200;-81
2021/10/12 12:35:48;;;;;;;1.05;0.95;;;15.50;83.50;;;;;;5041848;28;20178;-81
2021/10/12 12:38:32;;;;;;;0.40;0.40;;;15.50;80.10;;;;;;5043325;28;20658;-82
2021/10/12 12:40:58;;;;;;;1.35;0.80;;;15.50;82.60;;;;;;5042755;28;20201;-81
2021/10/12 12:43:30;;;;;;;1.10;0.65;;;15.40;80.20;;;;;;5041889;28;20240;-82
2021/10/12 12:46:13;;;;;;;2.65;1.02;;;15.40;81.90;;;;;;5041887;28;20208;-82
2021/10/12 12:48:40;;;;;;;0.40;0.40;;;15.10;80.80;;;;;;5043404;28;20545;-82
2021/10/12 12:51:08;;;;;;;0.63;0.57;;;14.90;82.70;;;;;;5041637;28;20740;-82
2021/10/12 12:54:00;;;;;;;0.90;0.80;;;14.80;83.40;;;;;;5043086;28;20181;-82
2021/10/12 12:56:39;;;;;;;0.73;0.63;;;14.80;82.00;;;;;;5038787;28;20202;-82
2021/10/12 12:59:10;;;;;;;1.25;1.15;;;14.70;82.70;;;;;;5042800;28;20185;-82
2021/10/12 13:01:37;;;;;;;0.68;0.65;;;14.70;83.00;;;;;;5042183;28;20182;-82
2021/10/12 13:04:04;;;;;;;1.02;1.00;;;14.70;82.00;;;;;;5043197;28;20543;-82
2021/10/12 13:06:30;;;;;;;0.70;0.60;;;14.70;81.20;;;;;;5042242;28;20198;-82